createdAt,value
2023-02-26T00:00:59.326Z,97630.09
2023-02-26T00:03:27.128Z,97635.66
2023-02-26T00:05:53.885Z,97634.22
2023-02-26T00:08:21.428Z,97633.22
2023-02-26T00:10:48.185Z,97640.37
2023-02-26T00:13:15.182Z,97645.42
2023-02-26T00:15:44.158Z,97649.04
2023-02-26T00:18:13.657Z,97650.79
2023-02-26T00:20:40.950Z,97654.30
2023-02-26T00:23:13.579Z,97666.66
2023-02-26T00:25:41.013Z,97677.91
2023-02-26T00:28:08.693Z,97680.52
2023-02-26T00:30:35.882Z,97679.23
2023-02-26T00:33:05.097Z,97681.51
2023-02-26T00:35:32.626Z,97682.45
2023-02-26T00:38:05.386Z,97671.89
2023-02-26T00:40:47.707Z,97667.27
2023-02-26T00:43:16.601Z,97655.91
2023-02-26T00:45:47.182Z,97673.45
2023-02-26T00:48:34.864Z,97683.68
2023-02-26T00:51:14.778Z,97676.08
2023-02-26T00:53:49.595Z,97679.32
2023-02-26T00:56:16.199Z,97697.61
2023-02-26T00:58:43.659Z,97704.13
2023-02-26T01:01:10.697Z,97707.36
2023-02-26T01:03:38.328Z,97722.76
2023-02-26T01:06:10.181Z,97724.54
2023-02-26T01:08:54.475Z,97722.67
2023-02-26T01:11:21.548Z,97725.29
2023-02-26T01:13:48.446Z,97729.73
2023-02-26T01:16:21.728Z,97733.33
2023-02-26T01:19:14.724Z,97723.35
2023-02-26T01:21:45.445Z,97728.73
2023-02-26T01:24:14.837Z,97731.73
2023-02-26T01:26:41.668Z,97732.69
2023-02-26T01:29:09.052Z,97742.57
2023-02-26T01:31:49.703Z,97762.55
2023-02-26T01:34:45.363Z,97777.50
2023-02-26T01:37:30.237Z,97787.92
2023-02-26T01:40:02.622Z,97784.06
2023-02-26T01:42:31.606Z,97787.67
2023-02-26T01:45:02.984Z,97787.33
2023-02-26T01:47:39.689Z,97785.36
2023-02-26T01:50:21.236Z,97792.14
2023-02-26T01:52:48.246Z,97794.95
2023-02-26T01:55:25.732Z,97789.96
2023-02-26T01:57:54.178Z,97792.17
2023-02-26T02:00:21.158Z,97806.48
2023-02-26T02:02:47.880Z,97816.91
2023-02-26T02:05:25.394Z,97820.95
2023-02-26T02:07:52.330Z,97829.13
2023-02-26T02:10:19.564Z,97833.84
2023-02-26T02:12:55.392Z,97836.02
2023-02-26T02:15:30.417Z,97830.07
2023-02-26T02:18:17.035Z,97831.50
2023-02-26T02:20:49.884Z,97827.58
2023-02-26T02:23:19.030Z,97822.63
2023-02-26T02:26:04.776Z,97837.73
2023-02-26T02:29:00.281Z,97847.08
2023-02-26T02:31:50.583Z,97848.96
2023-02-26T02:34:37.134Z,97856.75
2023-02-26T02:37:17.986Z,97855.29
2023-02-26T02:39:48.826Z,97866.03
2023-02-26T02:42:26.312Z,97865.93
2023-02-26T02:44:57.155Z,97873.18
2023-02-26T02:47:25.122Z,97875.20
2023-02-26T02:50:04.888Z,97875.88
2023-02-26T02:52:40.349Z,97883.10
2023-02-26T02:55:25.795Z,97879.11
2023-02-26T02:58:03.045Z,97879.41
2023-02-26T03:00:32.556Z,97879.33
2023-02-26T03:03:18.941Z,97878.64
2023-02-26T03:05:45.647Z,97878.75
2023-02-26T03:08:17.200Z,97880.41
2023-02-26T03:10:46.580Z,97886.52
2023-02-26T03:13:17.502Z,97894.16
2023-02-26T03:15:56.534Z,97900.84
2023-02-26T03:18:41.261Z,97908.23
2023-02-26T03:21:33.708Z,97911.98
2023-02-26T03:24:11.818Z,97915.66
2023-02-26T03:26:47.317Z,97913.98
2023-02-26T03:29:32.766Z,97915.98
2023-02-26T03:32:09.422Z,97922.89
2023-02-26T03:35:04.201Z,97924.33
2023-02-26T03:37:44.499Z,97926.93
2023-02-26T03:40:25.031Z,97927.73
2023-02-26T03:43:13.198Z,97929.07
2023-02-26T03:45:42.574Z,97938.59
2023-02-26T03:48:11.190Z,97944.81
2023-02-26T03:50:44.509Z,97946.40
2023-02-26T03:53:56.319Z,97958.20
2023-02-26T03:56:46.124Z,97958.54
2023-02-26T03:59:18.900Z,97963.21
2023-02-26T04:02:07.318Z,97966.89
2023-02-26T04:05:04.685Z,97974.45
2023-02-26T04:07:32.404Z,97978.77
2023-02-26T04:09:59.383Z,97984.19
2023-02-26T04:12:27.768Z,97985.38
2023-02-26T04:14:55.469Z,97995.14
2023-02-26T04:17:22.572Z,97998.55
2023-02-26T04:19:49.282Z,97999.16
2023-02-26T04:22:16.152Z,97999.73
2023-02-26T04:24:43.365Z,97998.30
2023-02-26T04:27:10.774Z,98005.77
2023-02-26T04:29:38.106Z,98002.74
2023-02-26T04:32:05.217Z,98005.45
2023-02-26T04:34:31.971Z,98017.17
2023-02-26T04:36:59.792Z,98018.75
2023-02-26T04:39:26.465Z,98031.69
2023-02-26T04:41:53.168Z,98033.54
2023-02-26T04:44:20.481Z,98045.91
2023-02-26T04:46:48.385Z,98043.35
2023-02-26T04:49:15.158Z,98043.90
2023-02-26T04:51:44.399Z,98042.30
2023-02-26T04:54:12.328Z,98049.64
2023-02-26T04:56:39.003Z,98048.01
2023-02-26T04:59:06.592Z,98047.27
2023-02-26T05:01:35.279Z,98049.59
2023-02-26T05:04:02.024Z,98052.82
2023-02-26T05:06:29.427Z,98058.42
2023-02-26T05:08:59.341Z,98067.36
2023-02-26T05:11:26.169Z,98075.44
2023-02-26T05:13:53.864Z,98084.44
2023-02-26T05:16:23.730Z,98101.67
2023-02-26T05:18:51.111Z,98104.84
2023-02-26T05:21:18.156Z,98104.39
2023-02-26T05:23:44.940Z,98107.56
2023-02-26T05:26:11.575Z,98107.53
2023-02-26T05:28:38.229Z,98108.90
2023-02-26T05:31:06.174Z,98115.85
2023-02-26T05:33:32.933Z,98117.02
2023-02-26T05:36:00.162Z,98121.67
2023-02-26T05:38:26.810Z,98124.74
2023-02-26T05:40:56.464Z,98127.29
2023-02-26T05:43:23.577Z,98123.80
2023-02-26T05:45:50.982Z,98126.48
2023-02-26T05:48:17.735Z,98132.20
2023-02-26T05:50:44.418Z,98134.34
2023-02-26T05:53:11.386Z,98140.92
2023-02-26T05:55:38.452Z,98145.17
2023-02-26T05:58:05.249Z,98147.16
2023-02-26T06:00:32.105Z,98150.79
2023-02-26T06:02:59.332Z,98154.69
2023-02-26T06:05:26.419Z,98155.04
2023-02-26T06:07:55.099Z,98153.84
2023-02-26T06:10:21.963Z,98154.26
2023-02-26T06:12:49.986Z,98161.70
2023-02-26T06:15:16.666Z,98166.64
2023-02-26T06:17:44.051Z,98170.14
2023-02-26T06:20:16.501Z,98179.29
2023-02-26T06:22:43.344Z,98185.40
2023-02-26T06:25:10.063Z,98191.30
2023-02-26T06:27:36.742Z,98197.19
2023-02-26T06:30:04.411Z,98203.33
2023-02-26T06:32:31.730Z,98211.02
2023-02-26T06:34:58.793Z,98216.69
2023-02-26T06:37:25.463Z,98225.86
2023-02-26T06:39:52.779Z,98231.89
2023-02-26T06:42:20.204Z,98240.55
2023-02-26T06:44:47.129Z,98246.48
2023-02-26T06:47:13.939Z,98250.59
2023-02-26T06:49:41.098Z,98256.46
2023-02-26T06:52:07.833Z,98268.05
2023-02-26T06:54:36.037Z,98264.98
2023-02-26T06:57:03.057Z,98268.80
2023-02-26T06:59:30.334Z,98272.80
2023-02-26T07:01:57.023Z,98276.23
2023-02-26T07:04:23.723Z,98279.49
2023-02-26T07:06:50.479Z,98280.02
2023-02-26T07:09:19.339Z,98282.95
2023-02-26T07:11:46.133Z,98284.34
2023-02-26T07:14:12.773Z,98280.77
2023-02-26T07:16:39.714Z,98284.48
2023-02-26T07:19:06.969Z,98287.66
2023-02-26T07:21:34.828Z,98291.21
2023-02-26T07:24:01.440Z,98295.96
2023-02-26T07:26:28.437Z,98295.89
2023-02-26T07:28:55.187Z,98295.06
2023-02-26T07:31:22.328Z,98300.06
2023-02-26T07:33:49.036Z,98299.34
2023-02-26T07:36:15.745Z,98299.50
2023-02-26T07:38:42.411Z,98303.84
2023-02-26T07:41:13.281Z,98303.35
2023-02-26T07:43:42.069Z,98310.73
2023-02-26T07:46:08.952Z,98313.94
2023-02-26T07:48:36.609Z,98315.84
2023-02-26T07:51:04.209Z,98307.80
2023-02-26T07:53:31.470Z,98316.52
2023-02-26T07:56:00.350Z,98317.14
2023-02-26T07:58:27.727Z,98320.64
2023-02-26T08:00:54.460Z,98325.95
2023-02-26T08:03:22.532Z,98327.91
2023-02-26T08:05:49.466Z,98323.75
2023-02-26T08:08:18.883Z,98333.23
2023-02-26T08:10:47.884Z,98337.41
2023-02-26T08:13:14.510Z,98334.08
2023-02-26T08:15:43.421Z,98330.33
2023-02-26T08:18:11.646Z,98330.96
2023-02-26T08:20:38.759Z,98329.99
2023-02-26T08:23:06.079Z,98336.94
2023-02-26T08:25:33.029Z,98337.71
2023-02-26T08:28:00.568Z,98332.12
2023-02-26T08:30:27.820Z,98337.33
2023-02-26T08:32:54.876Z,98341.73
2023-02-26T08:35:21.894Z,98345.46
2023-02-26T08:37:53.868Z,98349.80
2023-02-26T08:40:21.201Z,98362.79
2023-02-26T08:42:47.951Z,98367.15
2023-02-26T08:45:14.724Z,98367.14
2023-02-26T08:47:55.570Z,98370.15
2023-02-26T08:50:24.880Z,98378.28
2023-02-26T08:52:52.076Z,98375.70
2023-02-26T08:55:19.075Z,98379.33
2023-02-26T08:57:46.059Z,98381.28
2023-02-26T09:00:16.007Z,98387.06
2023-02-26T09:02:43.334Z,98381.45
2023-02-26T09:05:11.458Z,98383.96
2023-02-26T09:07:38.966Z,98388.73
2023-02-26T09:10:07.629Z,98393.16
2023-02-26T09:12:36.385Z,98394.49
2023-02-26T09:15:07.162Z,98399.70
2023-02-26T09:17:34.797Z,98401.41
2023-02-26T09:20:01.674Z,98408.16
2023-02-26T09:22:29.341Z,98413.27
2023-02-26T09:24:57.477Z,98419.55
2023-02-26T09:27:24.574Z,98422.04
2023-02-26T09:29:51.460Z,98432.56
2023-02-26T09:32:18.571Z,98438.05
2023-02-26T09:34:46.337Z,98439.39
2023-02-26T09:37:13.070Z,98444.55
2023-02-26T09:39:39.714Z,98451.53
2023-02-26T09:43:04.599Z,98450.56
2023-02-26T09:45:37.452Z,98452.77
2023-02-26T09:48:06.188Z,98447.39
2023-02-26T09:50:42.233Z,98449.52
2023-02-26T09:53:31.641Z,98452.27
2023-02-26T09:56:04.861Z,98449.43
2023-02-26T09:58:39.161Z,98448.15
2023-02-26T10:01:48.033Z,98442.18
2023-02-26T10:04:27.081Z,98451.83
2023-02-26T10:06:58.652Z,98452.48
2023-02-26T10:09:56.913Z,98443.68
2023-02-26T10:12:27.921Z,98440.11
2023-02-26T10:15:11.953Z,98441.91
2023-02-26T10:17:48.095Z,98438.41
2023-02-26T10:20:20.026Z,98441.27
2023-02-26T10:22:53.489Z,98443.69
2023-02-26T10:25:44.877Z,98449.22
2023-02-26T10:28:43.303Z,98453.98
2023-02-26T10:31:28.093Z,98454.17
2023-02-26T10:34:13.970Z,98457.39
2023-02-26T10:36:58.473Z,98461.02
2023-02-26T10:39:31.245Z,98460.02
2023-02-26T10:42:01.082Z,98463.05
2023-02-26T10:44:37.891Z,98461.67
2023-02-26T10:47:23.724Z,98462.55
2023-02-26T10:50:05.251Z,98467.31
2023-02-26T10:52:33.270Z,98473.23
2023-02-26T10:55:03.430Z,98473.78
2023-02-26T10:57:34.249Z,98471.14
2023-02-26T11:00:06.384Z,98475.08
2023-02-26T11:02:37.050Z,98477.54
2023-02-26T11:05:28.369Z,98484.36
2023-02-26T11:07:58.321Z,98490.90
2023-02-26T11:10:39.288Z,98494.10
2023-02-26T11:13:06.435Z,98498.34
2023-02-26T11:15:33.375Z,98494.45
2023-02-26T11:18:01.076Z,98494.81
2023-02-26T11:20:43.223Z,98499.00
2023-02-26T11:23:15.691Z,98499.27
2023-02-26T11:25:42.379Z,98504.52
2023-02-26T11:28:19.865Z,98512.59
2023-02-26T11:30:48.557Z,98512.17
2023-02-26T11:33:18.587Z,98517.58
2023-02-26T11:35:45.660Z,98519.52
2023-02-26T11:38:18.988Z,98525.81
2023-02-26T11:40:49.563Z,98531.02
2023-02-26T11:43:18.624Z,98528.79
2023-02-26T11:45:48.145Z,98531.88
2023-02-26T11:48:27.069Z,98535.13
2023-02-26T11:50:59.705Z,98541.77
2023-02-26T11:53:37.283Z,98549.13
2023-02-26T11:56:12.835Z,98543.41
2023-02-26T11:58:40.798Z,98542.35
2023-02-26T12:01:11.314Z,98546.17
2023-02-26T12:03:41.891Z,98549.77
2023-02-26T12:06:17.347Z,98548.45
2023-02-26T12:08:45.642Z,98546.22
2023-02-26T12:11:51.739Z,98556.17
2023-02-26T12:15:05.544Z,98562.42
2023-02-26T12:18:00.897Z,98570.30
2023-02-26T12:20:33.266Z,98571.84
2023-02-26T12:23:25.465Z,98569.25
2023-02-26T12:26:18.212Z,98576.58
2023-02-26T12:28:59.570Z,98582.66
2023-02-26T12:31:26.707Z,98590.20
2023-02-26T12:34:11.925Z,98598.04
2023-02-26T12:36:57.222Z,98598.36
2023-02-26T12:39:49.199Z,98603.23
2023-02-26T12:42:18.771Z,98598.82
2023-02-26T12:45:19.817Z,98598.00
2023-02-26T12:47:52.638Z,98600.09
2023-02-26T12:50:35.064Z,98602.67
2023-02-26T12:53:13.728Z,98610.06
2023-02-26T12:56:28.609Z,98608.83
2023-02-26T12:59:07.801Z,98611.04
2023-02-26T13:01:59.564Z,98613.95
2023-02-26T13:04:49.873Z,98614.90
2023-02-26T13:07:28.500Z,98611.77
2023-02-26T13:10:03.446Z,98616.26
2023-02-26T13:12:32.947Z,98622.38
2023-02-26T13:15:39.460Z,98626.34
2023-02-26T13:18:34.416Z,98638.48
2023-02-26T13:21:07.032Z,98633.21
2023-02-26T13:23:52.522Z,98637.70
2023-02-26T13:26:20.824Z,98641.22
2023-02-26T13:28:58.148Z,98646.42
2023-02-26T13:31:30.006Z,98654.35
2023-02-26T13:34:01.095Z,98658.27
2023-02-26T13:36:28.339Z,98660.94
2023-02-26T13:39:29.054Z,98664.91
2023-02-26T13:42:08.570Z,98665.08
2023-02-26T13:44:42.494Z,98671.59
2023-02-26T13:47:45.590Z,98671.23
2023-02-26T13:50:37.982Z,98679.64
2023-02-26T13:53:30.940Z,98687.89
2023-02-26T13:56:12.812Z,98685.48
2023-02-26T13:58:53.581Z,98686.36
2023-02-26T14:01:29.187Z,98687.23
2023-02-26T14:04:18.274Z,98690.00
2023-02-26T14:06:46.042Z,98696.02
2023-02-26T14:09:21.946Z,98693.91
2023-02-26T14:11:55.071Z,98694.16
2023-02-26T14:14:21.672Z,98701.67
2023-02-26T14:16:57.785Z,98704.96
2023-02-26T14:19:32.355Z,98707.09
2023-02-26T14:22:17.760Z,98708.88
2023-02-26T14:24:56.478Z,98711.68
2023-02-26T14:27:28.359Z,98718.73
2023-02-26T14:29:54.944Z,98723.64
2023-02-26T14:32:46.482Z,98730.62
2023-02-26T14:35:21.057Z,98726.20
2023-02-26T14:37:56.796Z,98729.07
2023-02-26T14:40:25.194Z,98729.54
2023-02-26T14:42:54.641Z,98734.91
2023-02-26T14:45:30.269Z,98739.40
2023-02-26T14:47:59.556Z,98744.30
2023-02-26T14:50:31.481Z,98744.77
2023-02-26T14:53:20.019Z,98746.96
2023-02-26T14:56:24.528Z,98752.84
2023-02-26T14:59:12.625Z,98756.02
2023-02-26T15:02:07.238Z,98758.57
2023-02-26T15:05:12.133Z,98754.34
2023-02-26T15:07:42.973Z,98755.35
2023-02-26T15:10:29.159Z,98757.02
2023-02-26T15:13:42.877Z,98758.15
2023-02-26T15:16:12.170Z,98766.05
2023-02-26T15:18:48.786Z,98768.93
2023-02-26T15:21:21.282Z,98771.27
2023-02-26T15:23:52.978Z,98774.42
2023-02-26T15:26:26.917Z,98782.55
2023-02-26T15:28:54.276Z,98789.20
2023-02-26T15:31:28.227Z,98785.91
2023-02-26T15:33:56.189Z,98797.59
2023-02-26T15:36:23.748Z,98801.40
2023-02-26T15:38:55.566Z,98806.90
2023-02-26T15:41:23.007Z,98810.20
2023-02-26T15:44:01.893Z,98814.54
2023-02-26T15:46:32.300Z,98816.39
2023-02-26T15:49:06.832Z,98815.48
2023-02-26T15:51:34.342Z,98818.95
2023-02-26T15:54:02.645Z,98825.34
2023-02-26T15:56:36.125Z,98825.92
2023-02-26T15:59:07.687Z,98829.23
2023-02-26T16:01:34.450Z,98833.77
2023-02-26T16:04:05.465Z,98835.70
2023-02-26T16:06:35.390Z,98837.45
2023-02-26T16:09:03.579Z,98840.50
2023-02-26T16:11:33.502Z,98845.67
2023-02-26T16:14:00.200Z,98849.88
2023-02-26T16:16:29.480Z,98855.13
2023-02-26T16:18:56.659Z,98862.47
2023-02-26T16:21:35.125Z,98860.63
2023-02-26T16:24:04.043Z,98867.27
2023-02-26T16:26:37.498Z,98866.80
2023-02-26T16:29:07.897Z,98867.73
2023-02-26T16:31:36.471Z,98872.32
2023-02-26T16:34:20.453Z,98876.84
2023-02-26T16:36:47.760Z,98882.42
2023-02-26T16:39:30.199Z,98884.98
2023-02-26T16:42:14.579Z,98891.27
2023-02-26T16:45:08.074Z,98899.52
2023-02-26T16:47:37.426Z,98906.96
2023-02-26T16:50:04.506Z,98911.52
2023-02-26T16:52:31.629Z,98910.58
2023-02-26T16:55:01.910Z,98913.73
2023-02-26T16:57:35.707Z,98913.27
2023-02-26T17:00:08.901Z,98914.02
2023-02-26T17:02:36.490Z,98913.41
2023-02-26T17:05:18.871Z,98909.52
2023-02-26T17:07:47.868Z,98915.54
2023-02-26T17:10:28.860Z,98914.98
2023-02-26T17:13:03.499Z,98925.42
2023-02-26T17:15:35.119Z,98934.20
2023-02-26T17:18:02.338Z,98934.33
2023-02-26T17:20:29.648Z,98933.54
2023-02-26T17:22:57.014Z,98937.66
2023-02-26T17:25:24.772Z,98938.20
2023-02-26T17:27:51.827Z,98934.71
2023-02-26T17:30:19.667Z,98932.59
2023-02-26T17:32:47.380Z,98935.89
2023-02-26T17:35:19.694Z,98939.65
2023-02-26T17:37:46.735Z,98940.44
2023-02-26T17:40:22.430Z,98945.61
2023-02-26T17:42:49.910Z,98947.59
2023-02-26T17:45:17.174Z,98951.54
2023-02-26T17:47:46.813Z,98949.77
2023-02-26T17:50:43.298Z,98956.77
2023-02-26T17:53:10.090Z,98959.17
2023-02-26T17:55:38.799Z,98963.53
2023-02-26T17:58:07.055Z,98968.45
2023-02-26T18:00:39.094Z,98971.88
2023-02-26T18:03:05.803Z,98973.59
2023-02-26T18:05:38.393Z,98980.23
2023-02-26T18:08:27.838Z,98985.19
2023-02-26T18:10:55.252Z,98986.40
2023-02-26T18:13:22.681Z,98990.36
2023-02-26T18:15:49.492Z,98989.23
2023-02-26T18:18:17.911Z,98992.05
2023-02-26T18:20:45.515Z,98995.09
2023-02-26T18:23:16.245Z,98999.73
2023-02-26T18:25:46.703Z,98998.56
2023-02-26T18:28:25.822Z,99000.33
2023-02-26T18:30:53.045Z,99006.90
2023-02-26T18:33:22.024Z,99013.69
2023-02-26T18:35:52.543Z,99016.16
2023-02-26T18:38:20.457Z,99015.41
2023-02-26T18:40:48.172Z,99018.40
2023-02-26T18:43:15.296Z,99015.41
2023-02-26T18:45:43.582Z,99016.38
2023-02-26T18:48:15.987Z,99026.15
2023-02-26T18:50:44.413Z,99031.86
2023-02-26T18:53:11.468Z,99031.79
2023-02-26T18:55:40.403Z,99027.04
2023-02-26T18:58:07.152Z,99032.48
2023-02-26T19:00:34.823Z,99025.42
2023-02-26T19:03:01.421Z,99031.10
2023-02-26T19:05:28.228Z,99034.30
2023-02-26T19:07:55.664Z,99037.10
2023-02-26T19:10:22.368Z,99035.92
2023-02-26T19:12:50.671Z,99043.30
2023-02-26T19:15:18.298Z,99048.46
2023-02-26T19:17:45.309Z,99050.60
2023-02-26T19:20:15.522Z,99051.45
2023-02-26T19:22:42.779Z,99055.50
2023-02-26T19:25:09.766Z,99066.50
2023-02-26T19:27:39.065Z,99072.34
2023-02-26T19:30:06.478Z,99075.42
2023-02-26T19:32:34.537Z,99075.76
2023-02-26T19:35:01.436Z,99076.25
2023-02-26T19:37:28.170Z,99078.34
2023-02-26T19:39:55.151Z,99079.36
2023-02-26T19:42:23.793Z,99082.73
2023-02-26T19:44:50.588Z,99082.59
2023-02-26T19:47:17.186Z,99085.39
2023-02-26T19:49:43.888Z,99089.14
2023-02-26T19:52:10.890Z,99090.42
2023-02-26T19:54:37.471Z,99098.91
2023-02-26T19:57:07.377Z,99109.05
2023-02-26T19:59:34.447Z,99108.59
2023-02-26T20:02:01.213Z,99107.35
2023-02-26T20:04:28.198Z,99108.81
2023-02-26T20:06:55.233Z,99108.73
2023-02-26T20:09:22.581Z,99108.76
2023-02-26T20:11:50.305Z,99115.27
2023-02-26T20:14:18.017Z,99115.23
2023-02-26T20:16:46.259Z,99116.96
2023-02-26T20:19:14.053Z,99119.39
2023-02-26T20:21:45.793Z,99125.68
2023-02-26T20:24:14.347Z,99128.43
2023-02-26T20:26:41.561Z,99133.38
2023-02-26T20:29:08.391Z,99140.35
2023-02-26T20:31:35.959Z,99149.79
2023-02-26T20:34:06.209Z,99153.92
2023-02-26T20:36:33.150Z,99156.32
2023-02-26T20:39:01.953Z,99154.80
2023-02-26T20:41:28.937Z,99155.55
2023-02-26T20:43:57.664Z,99156.45
2023-02-26T20:46:25.399Z,99153.17
2023-02-26T20:48:52.419Z,99155.73
2023-02-26T20:51:19.212Z,99157.86
2023-02-26T20:53:46.450Z,99159.67
2023-02-26T20:56:17.431Z,99168.05
2023-02-26T20:58:44.626Z,99174.64
2023-02-26T21:01:11.365Z,99173.13
2023-02-26T21:03:38.851Z,99169.27
2023-02-26T21:06:05.704Z,99166.98
2023-02-26T21:08:34.489Z,99169.95
2023-02-26T21:11:01.471Z,99173.56
2023-02-26T21:13:31.894Z,99178.04
2023-02-26T21:15:58.540Z,99181.22
2023-02-26T21:18:25.156Z,99178.70
2023-02-26T21:20:52.339Z,99178.14
2023-02-26T21:23:19.426Z,99186.08
2023-02-26T21:25:50.102Z,99189.32
2023-02-26T21:28:16.936Z,99193.52
2023-02-26T21:30:43.625Z,99191.31
2023-02-26T21:33:10.611Z,99195.61
2023-02-26T21:35:37.519Z,99203.79
2023-02-26T21:38:04.738Z,99204.27
2023-02-26T21:40:32.112Z,99204.94
2023-02-26T21:42:58.833Z,99209.09
2023-02-26T21:45:25.745Z,99208.11
2023-02-26T21:47:53.431Z,99213.70
2023-02-26T21:50:20.088Z,99207.42
2023-02-26T21:52:50.878Z,99212.54
2023-02-26T21:55:17.545Z,99218.51
2023-02-26T21:57:44.273Z,99229.16
2023-02-26T22:00:11.737Z,99230.94
2023-02-26T22:02:43.233Z,99234.34
2023-02-26T22:05:10.958Z,99235.88
2023-02-26T22:07:38.440Z,99237.95
2023-02-26T22:10:06.611Z,99237.02
2023-02-26T22:12:33.771Z,99238.96
2023-02-26T22:15:00.724Z,99238.17
2023-02-26T22:17:30.541Z,99236.95
2023-02-26T22:19:57.934Z,99241.05
2023-02-26T22:22:26.205Z,99245.79
2023-02-26T22:24:53.418Z,99252.09
2023-02-26T22:27:21.968Z,99248.83
2023-02-26T22:29:48.887Z,99250.38
2023-02-26T22:32:15.946Z,99250.33
2023-02-26T22:34:44.712Z,99253.54
2023-02-26T22:37:12.265Z,99257.58
2023-02-26T22:39:39.115Z,99261.37
2023-02-26T22:42:05.830Z,99265.78
2023-02-26T22:44:32.604Z,99269.12
2023-02-26T22:54:56.237Z,99283.39
2023-02-26T22:57:22.935Z,99281.81
2023-02-26T22:59:50.517Z,99289.12
2023-02-26T23:02:21.523Z,99292.27
2023-02-26T23:04:48.140Z,99305.05
2023-02-26T23:07:14.756Z,99309.69
2023-02-26T23:09:41.989Z,99314.77
2023-02-26T23:12:09.068Z,99320.07
2023-02-26T23:14:39.456Z,99321.27
2023-02-26T23:17:06.198Z,99316.26
2023-02-26T23:19:34.288Z,99315.48
2023-02-26T23:22:01.291Z,99312.30
2023-02-26T23:24:27.947Z,99312.82
2023-02-26T23:26:54.556Z,99323.41
2023-02-26T23:29:23.374Z,99323.77
2023-02-26T23:31:50.571Z,99334.16
2023-02-26T23:34:17.295Z,99340.38
2023-02-26T23:36:44.911Z,99348.96
2023-02-26T23:39:13.078Z,99352.67
2023-02-26T23:41:42.492Z,99354.65
2023-02-26T23:44:09.180Z,99359.85
2023-02-26T23:46:37.070Z,99360.25
2023-02-26T23:49:05.772Z,99358.92
2023-02-26T23:51:32.967Z,99357.28
2023-02-26T23:53:59.864Z,99358.45
2023-02-26T23:56:28.229Z,99370.11
2023-02-26T23:58:55.003Z,99372.67
